Time;durP1;ratioP1;P1;durP2;ratioP2;P2;SDS_P1;SDS_P2;PMS_P1;PMS_P2;Temp;Humidity;BMP_temperature;BMP_pressure;BME280_temperature;BME280_humidity;BME280_pressure;Samples;Min_cycle;Max_cycle;Signal;HPM_P1;HPM_P2
2021/09/17 00:01:56;;;;;;;15.68;11.88;;;;;20.70;101636.00;;;;5048979;28;20567;-78
2021/09/17 00:04:24;;;;;;;14.23;10.07;;;;;20.70;101633.00;;;;5054603;28;20456;-78
2021/09/17 00:06:51;;;;;;;15.75;10.80;;;;;20.70;101631.00;;;;5051388;28;20204;-78
2021/09/17 00:09:20;;;;;;;13.90;11.48;;;;;20.70;101626.00;;;;5049221;28;20282;-78
2021/09/17 00:11:48;;;;;;;15.77;11.85;;;;;20.70;101625.00;;;;5048677;28;20199;-78
2021/09/17 00:14:15;;;;;;;14.23;10.85;;;;;20.70;101624.00;;;;5049122;28;20715;-78
2021/09/17 00:16:43;;;;;;;15.02;10.98;;;;;20.70;101618.00;;;;5048604;28;20210;-78
2021/09/17 00:19:11;;;;;;;14.05;11.13;;;;;20.70;101616.00;;;;5048664;28;20207;-78
2021/09/17 00:21:38;;;;;;;14.48;10.25;;;;;20.70;101616.00;;;;5049066;28;20224;-78
2021/09/17 00:24:05;;;;;;;14.30;11.27;;;;;20.80;101621.00;;;;5065945;28;20207;-78
2021/09/17 00:26:34;;;;;;;11.55;9.52;;;;;20.70;101621.00;;;;5048382;28;20787;-78
2021/09/17 00:29:01;;;;;;;15.95;11.05;;;;;20.80;101618.00;;;;5048843;28;20199;-78
2021/09/17 00:31:28;;;;;;;17.25;11.80;;;;;20.80;101619.00;;;;5048970;28;20271;-78
2021/09/17 00:33:56;;;;;;;17.73;12.55;;;;;20.80;101614.00;;;;5048202;28;20196;-78
2021/09/17 00:36:23;;;;;;;18.30;12.10;;;;;20.80;101614.00;;;;5048979;28;20207;-78
2021/09/17 00:38:50;;;;;;;17.15;12.10;;;;;20.80;101622.00;;;;5066862;28;20231;-78
2021/09/17 00:41:17;;;;;;;18.40;12.85;;;;;20.80;101607.00;;;;5069393;28;20229;-78
2021/09/17 00:43:46;;;;;;;17.10;12.43;;;;;20.80;101613.00;;;;5068509;28;20210;-78
2021/09/17 00:46:13;;;;;;;17.02;13.18;;;;;20.80;101621.00;;;;5069240;28;20208;-78
2021/09/17 00:48:40;;;;;;;16.80;11.90;;;;;20.80;101617.00;;;;5051314;28;20258;-78
2021/09/17 00:51:08;;;;;;;17.75;12.65;;;;;20.80;101614.00;;;;5049430;28;20203;-78
2021/09/17 00:53:35;;;;;;;16.00;12.02;;;;;20.80;101615.00;;;;5048518;28;20212;-78
2021/09/17 00:56:03;;;;;;;15.75;11.05;;;;;20.80;101619.00;;;;5049637;28;20207;-78
2021/09/17 00:58:31;;;;;;;16.13;11.82;;;;;20.80;101612.00;;;;5068888;28;20569;-78
2021/09/17 01:01:00;;;;;;;16.80;12.75;;;;;20.80;101607.00;;;;5064377;28;20230;-78
2021/09/17 01:03:29;;;;;;;15.52;12.77;;;;;20.80;101614.00;;;;5048944;28;20200;-78
2021/09/17 01:05:56;;;;;;;13.98;10.80;;;;;20.80;101605.00;;;;5052817;28;20286;-78
2021/09/17 01:08:23;;;;;;;18.40;12.50;;;;;20.80;101598.00;;;;5050447;28;20208;-79
2021/09/17 01:10:51;;;;;;;16.83;12.10;;;;;20.80;101599.00;;;;5060943;28;20249;-78
2021/09/17 01:13:21;;;;;;;18.15;12.73;;;;;20.80;101601.00;;;;5067717;28;20195;-78
2021/09/17 01:15:49;;;;;;;18.33;12.05;;;;;20.80;101594.00;;;;5068026;28;20203;-78
2021/09/17 01:18:17;;;;;;;16.52;12.00;;;;;20.80;101590.00;;;;5067700;28;20195;-79
2021/09/17 01:20:44;;;;;;;16.52;12.52;;;;;20.80;101598.00;;;;5067922;28;20230;-78
2021/09/17 01:23:13;;;;;;;16.55;12.07;;;;;20.80;101588.00;;;;5068980;28;20195;-78
2021/09/17 01:25:40;;;;;;;19.27;13.98;;;;;20.80;101590.00;;;;5051169;28;20199;-78
2021/09/17 01:28:08;;;;;;;15.73;12.35;;;;;20.80;101581.00;;;;5060297;28;20194;-78
2021/09/17 01:30:35;;;;;;;16.02;12.43;;;;;20.80;101578.00;;;;5049390;28;20612;-78
2021/09/17 01:33:02;;;;;;;16.83;12.40;;;;;20.80;101584.00;;;;5048708;28;20222;-78
2021/09/17 01:35:29;;;;;;;14.60;11.02;;;;;20.80;101578.00;;;;5049077;28;20200;-78
2021/09/17 01:37:57;;;;;;;18.45;13.25;;;;;20.80;101577.00;;;;5048281;28;20246;-78
2021/09/17 01:40:25;;;;;;;16.52;11.95;;;;;20.80;101574.00;;;;5047645;28;20230;-78
2021/09/17 01:42:53;;;;;;;15.52;12.15;;;;;20.80;101562.00;;;;5048513;28;20257;-78
2021/09/17 01:45:20;;;;;;;16.63;12.05;;;;;20.80;101576.00;;;;5048389;28;20242;-78
2021/09/17 01:47:48;;;;;;;17.05;12.32;;;;;20.80;101569.00;;;;5047670;28;20200;-78
2021/09/17 01:50:15;;;;;;;17.02;12.23;;;;;20.90;101569.00;;;;5047969;28;20198;-78
2021/09/17 01:52:42;;;;;;;18.85;13.07;;;;;20.90;101565.00;;;;5048033;28;20257;-79
2021/09/17 01:55:11;;;;;;;14.85;11.27;;;;;20.90;101575.00;;;;5048808;28;20214;-79
2021/09/17 01:57:39;;;;;;;15.57;11.50;;;;;20.90;101567.00;;;;5054422;28;20202;-78
2021/09/17 02:00:08;;;;;;;17.52;12.02;;;;;20.90;101562.00;;;;5053074;28;20203;-78
2021/09/17 02:02:35;;;;;;;17.42;12.23;;;;;20.90;101560.00;;;;5048200;28;20777;-78
2021/09/17 02:05:03;;;;;;;16.85;12.00;;;;;20.90;101558.00;;;;5058567;28;20207;-78
2021/09/17 02:07:30;;;;;;;14.30;10.80;;;;;20.90;101564.00;;;;5069156;28;20199;-78
2021/09/17 02:09:58;;;;;;;17.00;11.43;;;;;20.90;101554.00;;;;5072376;28;20198;-78
2021/09/17 02:12:25;;;;;;;16.95;11.68;;;;;20.90;101560.00;;;;5072449;28;20240;-78
2021/09/17 02:14:54;;;;;;;15.55;11.20;;;;;20.90;101558.00;;;;5071513;28;20198;-78
2021/09/17 02:17:22;;;;;;;15.02;11.13;;;;;20.90;101556.00;;;;5069081;28;20199;-78
2021/09/17 02:19:49;;;;;;;16.85;11.68;;;;;20.90;101554.00;;;;5052014;28;20199;-78
2021/09/17 02:22:16;;;;;;;15.05;11.38;;;;;20.90;101547.00;;;;5051934;28;20247;-78
2021/09/17 02:24:44;;;;;;;15.02;11.13;;;;;20.90;101553.00;;;;5064521;28;20199;-78
2021/09/17 02:27:11;;;;;;;18.55;12.52;;;;;20.90;101546.00;;;;5070987;28;20203;-78
2021/09/17 02:29:38;;;;;;;15.80;11.60;;;;;20.90;101545.00;;;;5051366;28;20188;-78
2021/09/17 02:32:09;;;;;;;16.92;12.10;;;;;20.90;101539.00;;;;5051572;28;20212;-78
2021/09/17 02:34:36;;;;;;;15.25;11.07;;;;;21.00;101542.00;;;;5051166;28;20241;-78
2021/09/17 02:37:04;;;;;;;17.13;11.35;;;;;21.00;101541.00;;;;5050732;28;20661;-78
2021/09/17 02:39:31;;;;;;;15.32;11.30;;;;;21.00;101545.00;;;;5066847;28;20222;-78
2021/09/17 02:41:58;;;;;;;16.95;12.15;;;;;21.00;101534.00;;;;5071753;28;20234;-78
2021/09/17 02:44:26;;;;;;;16.02;11.70;;;;;21.00;101538.00;;;;5071167;28;20201;-78
2021/09/17 02:46:53;;;;;;;16.90;12.10;;;;;21.00;101537.00;;;;5070856;28;20213;-78
2021/09/17 02:49:22;;;;;;;18.00;12.82;;;;;21.00;101534.00;;;;5070702;28;20203;-78
2021/09/17 02:51:49;;;;;;;19.27;13.43;;;;;21.00;101533.00;;;;5064751;28;20210;-78
2021/09/17 02:54:16;;;;;;;16.35;10.93;;;;;21.00;101538.00;;;;5051561;28;20208;-78
2021/09/17 02:56:43;;;;;;;18.88;12.73;;;;;21.00;101538.00;;;;5051489;28;20204;-78
2021/09/17 02:59:11;;;;;;;18.40;12.98;;;;;21.00;101529.00;;;;5050689;28;20207;-78
2021/09/17 03:01:38;;;;;;;18.45;13.55;;;;;21.00;101520.00;;;;5051014;28;20230;-78
2021/09/17 03:04:05;;;;;;;22.17;13.80;;;;;21.00;101521.00;;;;5051050;28;20217;-78
2021/09/17 03:06:34;;;;;;;18.15;12.85;;;;;21.00;101516.00;;;;5050657;28;20191;-78
2021/09/17 03:09:01;;;;;;;18.02;12.77;;;;;21.00;101519.00;;;;5051384;28;20203;-78
2021/09/17 03:11:28;;;;;;;17.92;14.15;;;;;21.10;101502.00;;;;5051082;28;20195;-78
2021/09/17 03:13:56;;;;;;;20.08;14.05;;;;;21.10;101501.00;;;;5068547;28;20380;-78
2021/09/17 03:16:23;;;;;;;18.40;13.20;;;;;21.10;101500.00;;;;5070101;28;20198;-78
2021/09/17 03:18:50;;;;;;;19.70;12.65;;;;;21.10;101500.00;;;;5058554;28;20204;-78
2021/09/17 03:21:17;;;;;;;22.33;15.23;;;;;21.10;101497.00;;;;5049721;28;20215;-78
2021/09/17 03:23:46;;;;;;;19.95;13.80;;;;;21.10;101495.00;;;;5050127;28;20207;-78
2021/09/17 03:26:13;;;;;;;20.65;13.45;;;;;21.10;101494.00;;;;5050556;28;20191;-78
2021/09/17 03:28:40;;;;;;;20.98;14.07;;;;;21.10;101492.00;;;;5049728;28;20670;-78
2021/09/17 03:31:08;;;;;;;23.33;15.00;;;;;21.10;101496.00;;;;5049969;28;20218;-78
2021/09/17 03:33:35;;;;;;;18.98;14.57;;;;;21.10;101493.00;;;;5049756;28;20218;-78
2021/09/17 03:36:02;;;;;;;22.70;15.38;;;;;21.10;101490.00;;;;5050508;28;20203;-78
2021/09/17 03:38:29;;;;;;;23.83;16.58;;;;;21.10;101494.00;;;;5049496;28;20242;-78
2021/09/17 03:40:58;;;;;;;20.48;14.50;;;;;21.10;101485.00;;;;5049636;28;20254;-78
2021/09/17 03:43:25;;;;;;;22.50;14.60;;;;;21.10;101483.00;;;;5049858;28;20203;-78
2021/09/17 03:45:52;;;;;;;22.75;16.08;;;;;21.10;101487.00;;;;5049529;28;20588;-78
2021/09/17 03:48:19;;;;;;;21.33;15.07;;;;;21.10;101483.00;;;;5049160;28;20200;-79
2021/09/17 03:50:47;;;;;;;20.42;13.70;;;;;21.20;101490.00;;;;5048974;28;20199;-78
2021/09/17 03:53:14;;;;;;;20.75;13.98;;;;;21.20;101479.00;;;;5049867;28;20207;-78
2021/09/17 03:55:41;;;;;;;20.42;14.23;;;;;21.20;101487.00;;;;5049111;28;20200;-78
2021/09/17 03:58:10;;;;;;;21.55;14.43;;;;;21.20;101492.00;;;;5049186;28;20191;-78
2021/09/17 04:00:37;;;;;;;21.02;14.30;;;;;21.20;101488.00;;;;5050519;28;20200;-78
2021/09/17 04:03:05;;;;;;;21.60;15.32;;;;;21.20;101490.00;;;;5049795;28;20231;-79
2021/09/17 04:05:32;;;;;;;19.88;14.77;;;;;21.20;101488.00;;;;5055769;28;20199;-79
2021/09/17 04:07:59;;;;;;;22.75;15.23;;;;;21.20;101482.00;;;;5069110;28;20687;-78
2021/09/17 04:10:27;;;;;;;23.98;15.55;;;;;21.20;101482.00;;;;5069880;28;20282;-78
2021/09/17 04:12:54;;;;;;;22.50;14.77;;;;;21.20;101488.00;;;;5069665;28;20231;-78
2021/09/17 04:15:23;;;;;;;21.70;14.50;;;;;21.20;101482.00;;;;5066020;28;20203;-79
2021/09/17 04:17:50;;;;;;;22.58;16.08;;;;;21.20;101481.00;;;;5051064;28;20219;-78
2021/09/17 04:20:17;;;;;;;22.55;16.15;;;;;21.20;101475.00;;;;5054005;28;20199;-78
2021/09/17 04:22:45;;;;;;;28.10;15.27;;;;;21.20;101483.00;;;;5068587;28;20230;-77
2021/09/17 04:25:13;;;;;;;21.27;14.52;;;;;21.20;101478.00;;;;5069647;28;20199;-77
2021/09/17 04:27:43;;;;;;;21.90;15.73;;;;;21.20;101476.00;;;;5068126;28;20195;-77
2021/09/17 04:30:13;;;;;;;24.13;14.45;;;;;21.20;101474.00;;;;5052483;28;20573;-78
2021/09/17 04:32:42;;;;;;;23.15;15.90;;;;;21.20;101473.00;;;;5048482;28;20243;-77
2021/09/17 04:35:10;;;;;;;22.02;15.88;;;;;21.20;101476.00;;;;5056252;28;20210;-77
2021/09/17 04:37:40;;;;;;;26.88;16.13;;;;;21.20;101471.00;;;;5058573;28;20417;-77
2021/09/17 04:40:10;;;;;;;22.00;15.10;;;;;21.20;101474.00;;;;5051630;28;20314;-78
2021/09/17 04:42:38;;;;;;;22.85;15.55;;;;;21.20;101472.00;;;;5048924;28;20219;-77
2021/09/17 04:45:07;;;;;;;23.10;15.23;;;;;21.20;101467.00;;;;5049945;28;20202;-78
2021/09/17 04:47:35;;;;;;;24.77;15.18;;;;;21.20;101467.00;;;;5049159;28;20274;-77
2021/09/17 04:50:04;;;;;;;23.17;15.40;;;;;21.20;101471.00;;;;5049366;28;20226;-77
2021/09/17 04:52:31;;;;;;;21.88;15.32;;;;;21.30;101475.00;;;;5055705;28;20199;-77
2021/09/17 04:54:59;;;;;;;21.65;15.13;;;;;21.20;101475.00;;;;5057599;28;20200;-77
2021/09/17 04:57:27;;;;;;;21.98;15.32;;;;;21.30;101478.00;;;;5049114;28;20200;-78
2021/09/17 04:59:54;;;;;;;22.42;15.63;;;;;21.30;101475.00;;;;5055639;28;20238;-77
2021/09/17 05:02:22;;;;;;;24.58;16.85;;;;;21.30;101465.00;;;;5055782;28;20221;-77
2021/09/17 05:04:49;;;;;;;25.95;16.40;;;;;21.30;101472.00;;;;5062773;28;20199;-77
2021/09/17 05:07:18;;;;;;;26.05;16.88;;;;;21.20;101474.00;;;;5048519;28;20653;-77
2021/09/17 05:09:45;;;;;;;22.95;15.45;;;;;21.30;101473.00;;;;5048790;28;20206;-77
2021/09/17 05:12:12;;;;;;;22.83;15.95;;;;;21.30;101471.00;;;;5049437;28;20206;-77
2021/09/17 05:14:39;;;;;;;22.52;15.45;;;;;21.30;101473.00;;;;5050274;28;20211;-77
2021/09/17 05:17:07;;;;;;;22.73;16.73;;;;;21.30;101473.00;;;;5051467;28;20720;-77
2021/09/17 05:19:34;;;;;;;22.90;16.85;;;;;21.30;101471.00;;;;5047579;28;20199;-76
2021/09/17 05:22:01;;;;;;;22.55;16.00;;;;;21.30;101477.00;;;;5063263;28;20573;-77
2021/09/17 05:24:30;;;;;;;22.63;15.02;;;;;21.30;101469.00;;;;5049890;28;20200;-76
2021/09/17 05:26:57;;;;;;;25.00;16.10;;;;;21.30;101469.00;;;;5048876;28;20215;-78
2021/09/17 05:29:24;;;;;;;23.95;16.25;;;;;21.30;101475.00;;;;5051878;28;20202;-77
2021/09/17 05:31:51;;;;;;;24.40;17.33;;;;;21.30;101473.00;;;;5062274;28;20902;-78
2021/09/17 05:34:19;;;;;;;25.23;16.15;;;;;21.30;101471.00;;;;5063122;28;20195;-77
2021/09/17 05:36:46;;;;;;;22.85;15.73;;;;;21.30;101472.00;;;;5067246;28;20191;-77
2021/09/17 05:39:13;;;;;;;20.73;15.23;;;;;21.30;101472.00;;;;5051919;28;20215;-77
2021/09/17 05:41:42;;;;;;;23.00;16.60;;;;;21.30;101471.00;;;;5070820;28;20688;-78
2021/09/17 05:44:09;;;;;;;26.20;16.92;;;;;21.30;101472.00;;;;5068974;28;20199;-79
2021/09/17 05:46:36;;;;;;;23.02;15.65;;;;;21.30;101473.00;;;;5056544;28;20207;-77
2021/09/17 05:49:03;;;;;;;26.08;16.08;;;;;21.30;101472.00;;;;5058147;28;20249;-77
2021/09/17 05:51:33;;;;;;;24.67;16.00;;;;;21.40;101473.00;;;;5060486;28;20203;-77
2021/09/17 05:54:01;;;;;;;25.58;16.77;;;;;21.40;101479.00;;;;5055544;28;20210;-79
2021/09/17 05:56:28;;;;;;;20.30;14.73;;;;;21.40;101472.00;;;;5051424;28;20199;-77
2021/09/17 05:58:56;;;;;;;24.63;16.58;;;;;21.40;101475.00;;;;5059164;28;20202;-78
2021/09/17 06:01:24;;;;;;;24.40;16.45;;;;;21.40;101475.00;;;;5066665;28;20209;-79
2021/09/17 06:03:51;;;;;;;20.33;15.18;;;;;21.40;101480.00;;;;5058668;28;20217;-79
2021/09/17 06:06:18;;;;;;;22.90;15.82;;;;;21.40;101476.00;;;;5055374;28;20214;-79
2021/09/17 06:08:48;;;;;;;23.58;16.05;;;;;21.40;101476.00;;;;5051892;28;20747;-78
2021/09/17 06:11:15;;;;;;;24.33;16.48;;;;;21.50;101463.00;;;;5051551;28;20191;-79
2021/09/17 06:13:42;;;;;;;22.95;15.82;;;;;21.50;101470.00;;;;5051004;28;20257;-78
2021/09/17 06:16:11;;;;;;;22.65;16.35;;;;;21.50;101464.00;;;;5069393;28;20207;-79
2021/09/17 06:18:38;;;;;;;25.45;16.83;;;;;21.50;101469.00;;;;5070246;28;20668;-79
2021/09/17 06:21:06;;;;;;;25.08;17.02;;;;;21.50;101468.00;;;;5052177;28;20967;-79
2021/09/17 06:23:33;;;;;;;25.08;16.52;;;;;21.60;101470.00;;;;5051332;28;20227;-78
2021/09/17 06:26:00;;;;;;;21.67;15.07;;;;;21.60;101465.00;;;;5050970;28;20256;-79
2021/09/17 06:28:27;;;;;;;23.75;15.57;;;;;21.60;101469.00;;;;5051196;28;20684;-78
2021/09/17 06:30:55;;;;;;;20.80;15.65;;;;;21.60;101465.00;;;;5051005;28;20204;-79
2021/09/17 06:33:23;;;;;;;19.98;14.93;;;;;21.60;101472.00;;;;5050692;28;20234;-79
2021/09/17 06:35:51;;;;;;;21.50;14.75;;;;;21.70;101472.00;;;;5051370;28;20206;-79
2021/09/17 06:38:18;;;;;;;20.85;15.32;;;;;21.70;101466.00;;;;5071253;28;20199;-79
2021/09/17 06:40:46;;;;;;;23.45;15.65;;;;;21.70;101472.00;;;;5070255;28;20195;-79
2021/09/17 06:43:13;;;;;;;23.23;16.48;;;;;21.70;101469.00;;;;5063938;28;20215;-79
2021/09/17 06:45:41;;;;;;;21.98;14.80;;;;;21.70;101465.00;;;;5051044;28;20658;-78
2021/09/17 06:48:08;;;;;;;22.80;15.60;;;;;21.70;101469.00;;;;5051098;28;20669;-79
2021/09/17 06:50:37;;;;;;;22.48;16.23;;;;;21.70;101470.00;;;;5051102;28;20192;-78
2021/09/17 06:53:04;;;;;;;22.08;15.35;;;;;21.80;101466.00;;;;5055991;28;20740;-78
2021/09/17 06:55:33;;;;;;;24.40;16.15;;;;;21.80;101467.00;;;;5051106;28;20282;-77
2021/09/17 06:58:03;;;;;;;26.98;16.88;;;;;21.80;101472.00;;;;5061354;28;20649;-77
2021/09/17 07:00:33;;;;;;;19.70;14.40;;;;;21.80;101466.00;;;;5068508;28;20203;-78
2021/09/17 07:03:00;;;;;;;20.73;14.93;;;;;21.80;101473.00;;;;5051785;28;20231;-78
2021/09/17 07:05:29;;;;;;;18.35;13.82;;;;;21.90;101470.00;;;;5055207;28;20245;-77
2021/09/17 07:08:02;;;;;;;20.35;14.00;;;;;21.90;101475.00;;;;5062576;28;20209;-78
2021/09/17 07:10:30;;;;;;;19.35;13.77;;;;;21.90;101472.00;;;;5063559;28;20203;-77
2021/09/17 07:12:57;;;;;;;20.17;14.82;;;;;22.00;101469.00;;;;5067129;28;20195;-78
2021/09/17 07:15:25;;;;;;;21.08;14.88;;;;;22.00;101470.00;;;;5068699;28;20687;-78
2021/09/17 07:17:52;;;;;;;22.40;15.13;;;;;22.00;101469.00;;;;5069076;28;21135;-78
2021/09/17 07:20:20;;;;;;;21.30;14.25;;;;;22.00;101472.00;;;;5063346;28;20196;-78
2021/09/17 07:22:47;;;;;;;20.15;14.25;;;;;22.10;101466.00;;;;5061488;28;20692;-78
2021/09/17 07:25:19;;;;;;;22.08;14.77;;;;;22.10;101475.00;;;;5071089;28;20285;-78
2021/09/17 07:27:46;;;;;;;20.67;13.68;;;;;22.20;101469.00;;;;5051824;28;20268;-79
2021/09/17 07:30:15;;;;;;;21.40;14.30;;;;;22.20;101470.00;;;;5053151;28;20581;-78
2021/09/17 07:32:43;;;;;;;18.95;14.27;;;;;22.20;101470.00;;;;5052686;28;20223;-78
2021/09/17 07:35:11;;;;;;;19.80;13.40;;;;;22.30;101471.00;;;;5054551;28;20210;-79
2021/09/17 07:37:38;;;;;;;19.95;14.95;;;;;22.30;101468.00;;;;5062282;28;20199;-78
2021/09/17 07:40:07;;;;;;;19.73;14.55;;;;;22.40;101466.00;;;;5064072;28;20230;-78
2021/09/17 07:42:36;;;;;;;16.77;13.63;;;;;22.40;101470.00;;;;5066302;28;21021;-78
2021/09/17 07:45:03;;;;;;;18.75;13.73;;;;;22.50;101474.00;;;;5053934;28;20203;-78
2021/09/17 07:47:32;;;;;;;19.13;13.23;;;;;22.50;101474.00;;;;5050410;28;20566;-78
2021/09/17 07:50:00;;;;;;;16.02;12.48;;;;;22.60;101471.00;;;;5064272;28;20203;-78
2021/09/17 07:52:27;;;;;;;17.23;13.48;;;;;22.70;101464.00;;;;5059280;28;20203;-78
2021/09/17 07:54:54;;;;;;;18.95;13.95;;;;;22.70;101472.00;;;;5050238;28;20191;-78
2021/09/17 07:57:21;;;;;;;17.13;13.35;;;;;22.80;101471.00;;;;5054185;28;20207;-78
2021/09/17 07:59:50;;;;;;;17.80;12.98;;;;;22.80;101472.00;;;;5070097;28;20601;-78
2021/09/17 08:02:17;;;;;;;14.30;11.98;;;;;22.90;101479.00;;;;5059066;28;20226;-78
2021/09/17 08:04:45;;;;;;;15.35;10.43;;;;;22.90;101473.00;;;;5059234;28;20677;-78
2021/09/17 08:07:12;;;;;;;13.85;11.00;;;;;23.00;101472.00;;;;5055872;28;20195;-78
2021/09/17 08:09:39;;;;;;;14.93;11.52;;;;;23.00;101476.00;;;;5053314;28;20211;-78
2021/09/17 08:12:08;;;;;;;14.90;11.70;;;;;23.00;101476.00;;;;5063073;28;20195;-78
2021/09/17 08:14:35;;;;;;;12.55;10.95;;;;;23.10;101478.00;;;;5060980;28;20684;-78
2021/09/17 08:17:04;;;;;;;13.65;10.90;;;;;23.10;101467.00;;;;5061324;28;20195;-78
2021/09/17 08:19:31;;;;;;;15.30;11.77;;;;;23.20;101472.00;;;;5065365;28;20199;-78
2021/09/17 08:21:59;;;;;;;15.73;11.13;;;;;23.20;101471.00;;;;5061686;28;20575;-78
2021/09/17 08:24:26;;;;;;;14.48;10.95;;;;;23.30;101481.00;;;;5062061;28;20223;-78
2021/09/17 08:26:56;;;;;;;13.80;11.25;;;;;23.30;101479.00;;;;5048886;28;20204;-78
2021/09/17 08:29:23;;;;;;;15.95;11.70;;;;;23.30;101473.00;;;;5053783;28;20191;-78
2021/09/17 08:31:50;;;;;;;14.18;11.63;;;;;23.40;101476.00;;;;5057361;28;20219;-78
2021/09/17 08:34:19;;;;;;;12.77;10.80;;;;;23.40;101476.00;;;;5065789;28;20286;-78
2021/09/17 08:36:46;;;;;;;12.48;11.05;;;;;23.40;101478.00;;;;5057775;28;20207;-77
2021/09/17 08:39:15;;;;;;;12.40;10.32;;;;;23.50;101478.00;;;;5057826;28;20596;-77
2021/09/17 08:41:44;;;;;;;15.65;10.52;;;;;23.50;101485.00;;;;5054785;28;20856;-77
2021/09/17 08:44:11;;;;;;;12.88;10.93;;;;;23.50;101487.00;;;;5052928;28;20230;-77
2021/09/17 08:46:41;;;;;;;13.10;11.02;;;;;23.60;101483.00;;;;5063322;28;20191;-78
2021/09/17 08:49:09;;;;;;;11.90;10.38;;;;;23.60;101487.00;;;;5065678;28;20192;-77
2021/09/17 08:51:37;;;;;;;11.95;9.38;;;;;23.60;101492.00;;;;5046838;28;20578;-77
2021/09/17 08:54:05;;;;;;;13.73;10.73;;;;;23.70;101487.00;;;;5055730;28;20210;-77
2021/09/17 08:56:33;;;;;;;10.68;9.18;;;;;23.70;101490.00;;;;5047483;28;20645;-76
2021/09/17 08:59:01;;;;;;;13.13;10.80;;;;;23.80;101488.00;;;;5048134;28;20203;-77
2021/09/17 09:01:30;;;;;;;13.55;10.65;;;;;23.80;101488.00;;;;5048219;28;20204;-77
2021/09/17 09:03:59;;;;;;;12.60;10.18;;;;;23.80;101487.00;;;;5045113;28;20238;-77
2021/09/17 09:06:28;;;;;;;14.63;10.27;;;;;23.90;101485.00;;;;5048457;28;20624;-77
2021/09/17 09:08:57;;;;;;;14.27;10.88;;;;;23.90;101489.00;;;;5047993;28;20199;-77
2021/09/17 09:11:27;;;;;;;12.45;9.85;;;;;24.00;101480.00;;;;5050397;28;20195;-77
2021/09/17 09:13:59;;;;;;;12.57;9.93;;;;;24.00;101494.00;;;;5060552;28;20208;-77
2021/09/17 09:16:26;;;;;;;14.13;9.20;;;;;24.10;101493.00;;;;5048962;28;20199;-77
2021/09/17 09:18:54;;;;;;;11.77;10.02;;;;;24.10;101493.00;;;;5047833;28;20755;-76
2021/09/17 09:21:26;;;;;;;12.55;10.65;;;;;24.10;101490.00;;;;5050086;28;20684;-77
2021/09/17 09:24:11;;;;;;;13.70;10.85;;;;;24.10;101493.00;;;;5060706;28;20218;-77
2021/09/17 09:26:38;;;;;;;12.75;9.65;;;;;24.20;101493.00;;;;5047654;28;20876;-78
2021/09/17 09:29:24;;;;;;;12.23;9.65;;;;;24.20;101493.00;;;;5051974;28;20230;-78
2021/09/17 09:31:51;;;;;;;14.73;11.57;;;;;24.30;101485.00;;;;5051410;28;20219;-78
2021/09/17 09:34:20;;;;;;;13.95;11.32;;;;;24.30;101492.00;;;;5064384;28;20194;-78
2021/09/17 09:36:48;;;;;;;14.90;11.85;;;;;24.30;101487.00;;;;5060546;28;20194;-78
2021/09/17 09:39:16;;;;;;;17.38;11.18;;;;;24.40;101484.00;;;;5061703;28;20688;-77
2021/09/17 09:41:44;;;;;;;13.68;11.65;;;;;24.50;101494.00;;;;5047289;28;20196;-78
2021/09/17 09:44:16;;;;;;;14.57;10.88;;;;;24.50;101491.00;;;;5047399;28;20234;-77
2021/09/17 09:46:45;;;;;;;17.13;11.50;;;;;24.60;101494.00;;;;5046591;28;20224;-77
2021/09/17 09:49:15;;;;;;;20.70;13.18;;;;;24.60;101488.00;;;;5047199;28;20203;-77
2021/09/17 09:52:01;;;;;;;17.17;11.68;;;;;24.60;101486.00;;;;5046019;28;20691;-77
2021/09/17 09:54:30;;;;;;;15.80;11.75;;;;;24.70;101483.00;;;;5047423;28;20560;-77
2021/09/17 09:56:59;;;;;;;15.10;11.65;;;;;24.80;101487.00;;;;5046410;28;20202;-77
2021/09/17 09:59:28;;;;;;;14.90;11.13;;;;;24.80;101484.00;;;;5047913;28;20200;-76
2021/09/17 10:01:57;;;;;;;15.20;11.75;;;;;24.90;101481.00;;;;5053891;28;20202;-78
2021/09/17 10:04:26;;;;;;;15.23;11.07;;;;;24.90;101493.00;;;;5053353;28;20229;-78
2021/09/17 10:07:04;;;;;;;18.63;13.35;;;;;24.90;101486.00;;;;5052411;28;20203;-78
2021/09/17 10:09:33;;;;;;;18.52;12.75;;;;;25.00;101486.00;;;;5067314;28;20207;-78
2021/09/17 10:12:00;;;;;;;18.15;11.63;;;;;25.10;101492.00;;;;5058177;28;20565;-78
2021/09/17 10:14:30;;;;;;;17.17;12.32;;;;;25.20;101486.00;;;;5063542;28;20195;-78
2021/09/17 10:16:58;;;;;;;17.00;12.82;;;;;25.20;101487.00;;;;5066237;28;20665;-78
2021/09/17 10:19:26;;;;;;;18.92;12.75;;;;;25.30;101488.00;;;;5067161;28;20623;-78
2021/09/17 10:21:56;;;;;;;16.05;11.80;;;;;25.30;101483.00;;;;5067277;28;20206;-78
2021/09/17 10:24:48;;;;;;;15.65;13.05;;;;;25.30;101480.00;;;;5067153;28;20230;-77
2021/09/17 10:27:21;;;;;;;13.77;11.23;;;;;25.40;101477.00;;;;5065551;28;20203;-77
2021/09/17 10:29:58;;;;;;;16.42;11.82;;;;;25.40;101478.00;;;;5051335;28;20203;-77
2021/09/17 10:32:38;;;;;;;16.48;12.18;;;;;25.50;101477.00;;;;5059047;28;20246;-78
2021/09/17 10:35:11;;;;;;;17.30;12.45;;;;;25.70;101470.00;;;;5066391;28;20195;-78
2021/09/17 10:38:06;;;;;;;15.13;11.57;;;;;25.70;101472.00;;;;5067789;28;20199;-78
2021/09/17 10:40:47;;;;;;;12.15;9.43;;;;;25.90;101472.00;;;;5060711;28;20234;-78
2021/09/17 10:43:27;;;;;;;12.07;9.15;;;;;26.10;101472.00;;;;5050825;28;20701;-78
2021/09/17 10:45:55;;;;;;;10.85;8.05;;;;;26.20;101479.00;;;;5050668;28;20210;-77
2021/09/17 10:48:25;;;;;;;10.30;7.78;;;;;26.30;101474.00;;;;5054852;28;20700;-78
2021/09/17 10:50:56;;;;;;;9.80;7.57;;;;;26.50;101475.00;;;;5051394;28;20946;-78
2021/09/17 10:54:03;;;;;;;9.57;7.53;;;;;26.60;101474.00;;;;5055816;28;20207;-78
2021/09/17 10:57:05;;;;;;;10.30;7.18;;;;;26.70;101466.00;;;;5071500;28;20234;-78
2021/09/17 10:59:47;;;;;;;10.35;7.90;;;;;26.80;101462.00;;;;5063050;28;20198;-78
2021/09/17 11:02:16;;;;;;;9.77;8.27;;;;;27.00;101465.00;;;;5059910;28;20195;-78
2021/09/17 11:04:46;;;;;;;11.85;8.90;;;;;27.10;101465.00;;;;5053889;28;20227;-78
2021/09/17 11:07:34;;;;;;;10.48;7.32;;;;;27.10;101462.00;;;;5051519;28;20206;-78
2021/09/17 11:10:03;;;;;;;9.90;8.13;;;;;27.30;101465.00;;;;5061160;28;20291;-78
2021/09/17 11:12:32;;;;;;;11.55;8.75;;;;;27.30;101459.00;;;;5051123;28;20672;-78
2021/09/17 11:15:05;;;;;;;12.82;8.70;;;;;27.30;101460.00;;;;5063010;28;20207;-78
2021/09/17 11:17:36;;;;;;;10.52;8.05;;;;;27.40;101462.00;;;;5070230;28;20261;-78
2021/09/17 11:20:05;;;;;;;11.30;8.10;;;;;27.50;101465.00;;;;5070277;28;20194;-78
2021/09/17 11:22:57;;;;;;;10.07;7.78;;;;;27.50;101459.00;;;;5063881;28;20623;-78
2021/09/17 11:25:28;;;;;;;11.32;7.82;;;;;27.70;101467.00;;;;5057098;28;20230;-78
2021/09/17 11:27:55;;;;;;;8.70;7.00;;;;;27.80;101467.00;;;;5050342;28;20210;-78
2021/09/17 11:30:26;;;;;;;10.65;7.78;;;;;27.80;101472.00;;;;5060469;28;20191;-78
2021/09/17 11:32:54;;;;;;;11.10;7.70;;;;;27.90;101465.00;;;;5070363;28;20214;-77
2021/09/17 11:35:22;;;;;;;7.57;5.68;;;;;27.90;101475.00;;;;5070808;28;20199;-76
2021/09/17 11:37:51;;;;;;;12.68;6.35;;;;;28.00;101468.00;;;;5070016;28;20191;-76
2021/09/17 11:40:18;;;;;;;10.80;7.13;;;;;28.10;101478.00;;;;5057431;28;20243;-77
2021/09/17 11:42:45;;;;;;;9.93;6.13;;;;;28.10;101473.00;;;;5052592;28;20191;-77
2021/09/17 11:45:15;;;;;;;9.60;6.75;;;;;28.10;101474.00;;;;5049019;28;20223;-78
2021/09/17 11:47:47;;;;;;;9.27;6.13;;;;;28.10;101468.00;;;;5049936;28;20199;-77
2021/09/17 11:50:15;;;;;;;11.52;7.18;;;;;28.20;101469.00;;;;5050178;28;20223;-77
2021/09/17 11:52:44;;;;;;;9.88;6.85;;;;;28.20;101464.00;;;;5050535;28;20572;-79
2021/09/17 11:55:15;;;;;;;9.80;7.60;;;;;28.20;101467.00;;;;5050252;28;20209;-79
2021/09/17 11:57:45;;;;;;;10.30;6.57;;;;;28.20;101461.00;;;;5057098;28;20580;-78
2021/09/17 12:00:14;;;;;;;11.23;7.53;;;;;28.20;101458.00;;;;5066161;28;20198;-79